createdAt,value
2022-09-28T00:00:47.962Z,98608.06
2022-09-28T00:01:35.117Z,98611.56
2022-09-28T00:02:21.986Z,98605.97
2022-09-28T00:03:09.486Z,98609.47
2022-09-28T00:04:00.041Z,98608.88
2022-09-28T00:04:46.772Z,98609.28
2022-09-28T00:05:33.452Z,98611.31
2022-09-28T00:06:24.567Z,98614.25
2022-09-28T00:07:11.232Z,98611.09
2022-09-28T00:07:58.122Z,98612.59
2022-09-28T00:08:45.191Z,98615.00
2022-09-28T00:09:31.961Z,98620.78
2022-09-28T00:10:18.693Z,98622.16
2022-09-28T00:11:07.143Z,98621.78
2022-09-28T00:11:54.052Z,98619.16
2022-09-28T00:12:40.782Z,98624.09
2022-09-28T00:13:28.412Z,98616.94
2022-09-28T00:14:15.592Z,98620.25
2022-09-28T00:15:03.383Z,98617.56
2022-09-28T00:16:05.981Z,98620.66
2022-09-28T00:16:52.774Z,98617.34
2022-09-28T00:17:39.693Z,98616.75
2022-09-28T00:18:26.863Z,98612.47
2022-09-28T00:19:13.616Z,98606.66
2022-09-28T00:20:01.161Z,98612.47
2022-09-28T00:20:47.872Z,98604.44
2022-09-28T00:21:36.401Z,98601.00
2022-09-28T00:22:23.053Z,98604.09
2022-09-28T00:23:09.752Z,98599.09
2022-09-28T00:24:15.110Z,98600.78
2022-09-28T00:25:01.895Z,98596.03
2022-09-28T00:25:48.603Z,98591.75
2022-09-28T00:26:35.391Z,98597.09
2022-09-28T00:27:22.192Z,98597.31
2022-09-28T00:28:08.923Z,98587.66
2022-09-28T00:29:00.602Z,98587.72
2022-09-28T00:29:47.282Z,98587.34
2022-09-28T00:30:33.962Z,98590.63
2022-09-28T00:31:21.124Z,98586.91
2022-09-28T00:32:11.809Z,98584.63
2022-09-28T00:32:58.371Z,98579.88
2022-09-28T00:33:45.482Z,98584.69
2022-09-28T00:34:34.993Z,98582.56
2022-09-28T00:35:21.742Z,98584.44
2022-09-28T00:36:08.563Z,98572.66
2022-09-28T00:36:55.223Z,98579.06
2022-09-28T00:37:41.964Z,98579.06
2022-09-28T00:38:29.652Z,98584.63
2022-09-28T00:39:17.217Z,98584.44
2022-09-28T00:40:04.384Z,98583.00
2022-09-28T00:40:51.187Z,98583.22
2022-09-28T00:41:38.082Z,98573.31
2022-09-28T00:42:26.207Z,98582.19
2022-09-28T00:43:20.282Z,98579.25
2022-09-28T00:44:25.693Z,98577.78
2022-09-28T00:45:12.495Z,98579.50
2022-09-28T00:46:01.865Z,98581.16
2022-09-28T00:47:09.450Z,98584.69
2022-09-28T00:47:57.353Z,98580.25
2022-09-28T00:48:57.301Z,98568.94
2022-09-28T00:49:44.721Z,98567.75
2022-09-28T00:50:35.911Z,98576.63
2022-09-28T00:51:24.992Z,98576.88
2022-09-28T00:52:15.320Z,98576.88
2022-09-28T00:53:12.302Z,98571.78
2022-09-28T00:53:59.871Z,98566.41
2022-09-28T00:54:47.176Z,98570.91
2022-09-28T00:55:51.333Z,98568.03
2022-09-28T00:56:39.762Z,98567.63
2022-09-28T00:57:26.551Z,98572.06
2022-09-28T00:58:16.892Z,98575.53
2022-09-28T00:59:04.892Z,98571.62
2022-09-28T00:59:52.461Z,98575.59
2022-09-28T01:00:41.434Z,98576.44
2022-09-28T01:01:28.592Z,98581.41
2022-09-28T01:02:15.355Z,98574.19
2022-09-28T01:03:02.572Z,98576.69
2022-09-28T01:03:49.322Z,98574.56
2022-09-28T01:04:37.461Z,98570.03
2022-09-28T01:05:24.840Z,98567.16
2022-09-28T01:06:20.803Z,98572.72
2022-09-28T01:07:09.034Z,98572.06
2022-09-28T01:07:57.191Z,98573.75
2022-09-28T01:08:44.761Z,98576.44
2022-09-28T01:09:32.342Z,98573.50
2022-09-28T01:10:19.142Z,98566.47
2022-09-28T01:11:05.965Z,98575.94
2022-09-28T01:11:52.692Z,98574.25
2022-09-28T01:12:39.384Z,98576.09
2022-09-28T01:13:26.365Z,98570.09
2022-09-28T01:14:15.445Z,98570.28
2022-09-28T01:15:02.893Z,98571.56
2022-09-28T01:16:14.669Z,98568.34
2022-09-28T01:17:09.032Z,98571.84
2022-09-28T01:18:08.263Z,98571.25
2022-09-28T01:19:03.573Z,98568.94
2022-09-28T01:20:27.373Z,98570.94
2022-09-28T01:21:19.262Z,98577.97
2022-09-28T01:22:17.821Z,98570.63
2022-09-28T01:23:32.259Z,98577.19
2022-09-28T01:24:33.561Z,98572.41
2022-09-28T01:25:38.802Z,98571.72
2022-09-28T01:26:25.415Z,98576.03
2022-09-28T01:27:12.173Z,98568.00
2022-09-28T01:28:04.854Z,98558.72
2022-09-28T01:28:57.492Z,98561.41
2022-09-28T01:30:08.591Z,98557.66
2022-09-28T01:31:03.930Z,98562.25
2022-09-28T01:31:57.092Z,98572.16
2022-09-28T01:33:01.732Z,98576.28
2022-09-28T01:34:01.122Z,98572.16
2022-09-28T01:34:55.092Z,98580.59
2022-09-28T01:36:06.381Z,98579.66
2022-09-28T01:36:55.811Z,98577.91
2022-09-28T01:37:52.233Z,98578.72
2022-09-28T01:38:46.372Z,98580.00
2022-09-28T01:39:45.685Z,98583.91
2022-09-28T01:40:33.207Z,98580.94
2022-09-28T01:41:20.282Z,98575.81
2022-09-28T01:42:11.370Z,98585.25
2022-09-28T01:43:03.194Z,98579.88
2022-09-28T01:43:55.883Z,98587.47
2022-09-28T01:44:44.832Z,98578.31
2022-09-28T01:45:51.142Z,98573.66
2022-09-28T01:46:44.942Z,98577.78
2022-09-28T01:47:34.502Z,98571.56
2022-09-28T01:48:31.042Z,98569.91
2022-09-28T01:49:20.317Z,98569.50
2022-09-28T01:50:11.752Z,98570.09
2022-09-28T01:51:00.893Z,98574.63
2022-09-28T01:52:04.312Z,98574.16
2022-09-28T01:53:09.621Z,98574.44
2022-09-28T01:54:00.762Z,98575.69
2022-09-28T01:54:52.351Z,98571.56
2022-09-28T01:55:50.989Z,98579.88
2022-09-28T01:56:40.962Z,98572.66
2022-09-28T01:57:44.812Z,98570.56
2022-09-28T01:58:36.921Z,98574.44
2022-09-28T01:59:27.383Z,98570.09
2022-09-28T02:00:15.722Z,98577.69
2022-09-28T02:01:14.249Z,98577.31
2022-09-28T02:02:06.765Z,98579.25
2022-09-28T02:03:08.012Z,98584.59
2022-09-28T02:04:02.392Z,98576.34
2022-09-28T02:04:55.922Z,98575.16
2022-09-28T02:05:46.270Z,98584.66
2022-09-28T02:06:38.965Z,98587.28
2022-09-28T02:07:35.022Z,98591.44
2022-09-28T02:08:26.882Z,98590.59
2022-09-28T02:09:30.510Z,98593.94
2022-09-28T02:10:24.783Z,98591.91
2022-09-28T02:11:21.581Z,98590.59
2022-09-28T02:12:16.266Z,98591.78
2022-09-28T02:13:18.783Z,98587.06
2022-09-28T02:14:08.053Z,98582.75
2022-09-28T02:14:56.192Z,98586.88
2022-09-28T02:15:47.182Z,98587.66
2022-09-28T02:16:41.237Z,98587.66
2022-09-28T02:17:28.013Z,98585.59
2022-09-28T02:18:14.757Z,98588.09
2022-09-28T02:19:01.593Z,98592.38
2022-09-28T02:19:48.312Z,98585.81
2022-09-28T02:20:36.832Z,98595.34
2022-09-28T02:21:32.740Z,98591.78
2022-09-28T02:22:28.031Z,98593.00
2022-09-28T02:23:15.551Z,98595.06
2022-09-28T02:24:07.153Z,98597.16
2022-09-28T02:24:53.671Z,98593.28
2022-09-28T02:25:45.132Z,98598.00
2022-09-28T02:26:35.342Z,98592.91
2022-09-28T02:27:35.814Z,98597.81
2022-09-28T02:28:22.463Z,98594.28
2022-09-28T02:29:09.162Z,98588.28
2022-09-28T02:29:55.783Z,98591.91
2022-09-28T02:30:44.102Z,98598.31
2022-09-28T02:31:31.313Z,98594.19
2022-09-28T02:32:20.356Z,98598.53
2022-09-28T02:33:21.580Z,98591.97
2022-09-28T02:34:09.172Z,98589.56
2022-09-28T02:34:55.791Z,98590.78
2022-09-28T02:35:43.143Z,98593.22
2022-09-28T02:36:30.084Z,98584.53
2022-09-28T02:37:16.752Z,98589.91
2022-09-28T02:38:03.361Z,98587.00
2022-09-28T02:38:50.001Z,98593.59
2022-09-28T02:39:36.603Z,98592.28
2022-09-28T02:40:30.504Z,98593.13
2022-09-28T02:41:26.654Z,98587.31
2022-09-28T02:42:25.757Z,98595.56
2022-09-28T02:43:53.937Z,98589.19
2022-09-28T02:45:11.949Z,98587.50
2022-09-28T02:46:28.743Z,98582.59
2022-09-28T02:47:26.780Z,98577.81
2022-09-28T02:48:43.894Z,98578.47
2022-09-28T02:49:38.140Z,98578.25
2022-09-28T02:50:42.163Z,98572.31
2022-09-28T02:51:37.704Z,98573.16
2022-09-28T02:53:01.542Z,98575.00
2022-09-28T02:53:57.302Z,98575.63
2022-09-28T02:55:35.192Z,98575.84
2022-09-28T02:56:30.671Z,98572.78
2022-09-28T02:57:23.082Z,98576.56
2022-09-28T02:58:48.010Z,98574.06
2022-09-28T03:00:05.382Z,98576.16
2022-09-28T03:00:58.452Z,98578.28
2022-09-28T03:01:56.778Z,98574.13
2022-09-28T03:02:49.172Z,98573.94
2022-09-28T03:03:35.762Z,98572.53
2022-09-28T03:04:50.082Z,98576.50
2022-09-28T03:05:54.333Z,98572.59
2022-09-28T03:07:06.993Z,98575.94
2022-09-28T03:08:07.712Z,98573.88
2022-09-28T03:09:01.343Z,98574.13
2022-09-28T03:10:00.261Z,98577.38
2022-09-28T03:10:50.972Z,98578.59
2022-09-28T03:11:38.871Z,98568.34
2022-09-28T03:12:26.335Z,98571.91
2022-09-28T03:13:13.492Z,98573.53
2022-09-28T03:14:01.042Z,98572.53
2022-09-28T03:14:47.655Z,98567.16
2022-09-28T03:15:35.881Z,98571.50
2022-09-28T03:16:22.642Z,98570.31
2022-09-28T03:17:09.263Z,98576.50
2022-09-28T03:17:56.942Z,98565.75
2022-09-28T03:18:43.922Z,98579.38
2022-09-28T03:19:33.531Z,98569.91
2022-09-28T03:20:20.733Z,98572.22
2022-09-28T03:21:08.024Z,98574.72
2022-09-28T03:21:55.721Z,98566.03
2022-09-28T03:22:42.451Z,98568.22
2022-09-28T03:23:29.032Z,98565.12
2022-09-28T03:24:15.621Z,98570.84
2022-09-28T03:25:02.203Z,98567.16
2022-09-28T03:25:48.843Z,98567.00
2022-09-28T03:26:35.432Z,98567.81
2022-09-28T03:27:22.422Z,98565.72
2022-09-28T03:28:09.001Z,98569.47
2022-09-28T03:28:55.613Z,98568.44
2022-09-28T03:29:42.193Z,98571.13
2022-09-28T03:30:28.772Z,98580.66
2022-09-28T03:31:15.430Z,98572.22
2022-09-28T03:32:02.193Z,98573.06
2022-09-28T03:32:57.543Z,98570.00
2022-09-28T03:33:44.114Z,98573.13
2022-09-28T03:34:30.682Z,98571.91
2022-09-28T03:35:17.243Z,98570.03
2022-09-28T03:36:03.873Z,98563.84
2022-09-28T03:36:50.474Z,98568.19
2022-09-28T03:37:37.393Z,98571.13
2022-09-28T03:38:24.002Z,98563.66
2022-09-28T03:39:10.680Z,98567.41
2022-09-28T03:39:57.411Z,98560.44
2022-09-28T03:40:44.631Z,98562.34
2022-09-28T03:41:31.301Z,98557.84
2022-09-28T03:42:17.913Z,98557.84
2022-09-28T03:43:04.492Z,98559.31
2022-09-28T03:43:51.094Z,98572.09
2022-09-28T03:44:37.675Z,98569.63
2022-09-28T03:45:24.275Z,98558.06
2022-09-28T03:46:10.890Z,98561.19
2022-09-28T03:46:57.522Z,98567.19
2022-09-28T03:47:48.724Z,98570.13
2022-09-28T03:48:36.232Z,98554.44
2022-09-28T03:49:22.822Z,98559.81
2022-09-28T03:50:09.472Z,98557.53
2022-09-28T03:50:57.513Z,98564.34
2022-09-28T03:51:44.152Z,98565.81
2022-09-28T03:52:30.763Z,98563.31
2022-09-28T03:53:17.382Z,98562.47
2022-09-28T03:54:04.263Z,98567.25
2022-09-28T03:54:50.853Z,98559.50
2022-09-28T03:55:38.402Z,98561.97
2022-09-28T03:56:25.000Z,98564.25
2022-09-28T03:57:11.572Z,98561.37
2022-09-28T03:57:58.164Z,98560.50
2022-09-28T03:58:44.842Z,98565.53
2022-09-28T03:59:31.502Z,98556.28
2022-09-28T04:00:18.472Z,98563.91
2022-09-28T04:01:09.182Z,98563.00
2022-09-28T04:01:57.707Z,98558.28
2022-09-28T04:02:44.332Z,98555.19
2022-09-28T04:03:31.331Z,98556.03
2022-09-28T04:04:18.102Z,98553.09
2022-09-28T04:05:04.882Z,98562.41
2022-09-28T04:05:52.982Z,98562.41
2022-09-28T04:06:39.872Z,98561.22
2022-09-28T04:07:30.751Z,98564.09
2022-09-28T04:08:17.821Z,98561.41
2022-09-28T04:09:04.683Z,98563.62
2022-09-28T04:09:51.262Z,98560.72
2022-09-28T04:10:37.832Z,98562.81
2022-09-28T04:11:24.412Z,98561.78
2022-09-28T04:12:10.991Z,98558.28
2022-09-28T04:12:58.022Z,98556.62
2022-09-28T04:13:48.372Z,98553.09
2022-09-28T04:14:35.014Z,98553.09
2022-09-28T04:15:21.842Z,98549.75
2022-09-28T04:16:10.447Z,98552.25
2022-09-28T04:16:57.093Z,98552.66
2022-09-28T04:17:43.662Z,98545.63
2022-09-28T04:18:30.284Z,98555.34
2022-09-28T04:19:17.131Z,98554.09
2022-09-28T04:20:04.361Z,98547.91
2022-09-28T04:21:06.864Z,98544.16
2022-09-28T04:21:53.544Z,98548.09
2022-09-28T04:22:40.142Z,98544.75
2022-09-28T04:23:27.822Z,98550.31
2022-09-28T04:24:14.606Z,98543.31
2022-09-28T04:25:01.212Z,98541.22
2022-09-28T04:25:52.011Z,98544.91
2022-09-28T04:26:38.820Z,98544.09
2022-09-28T04:27:44.032Z,98539.34
2022-09-28T04:28:49.230Z,98532.31
2022-09-28T04:29:36.103Z,98549.03
2022-09-28T04:30:23.203Z,98545.09
2022-09-28T04:31:15.360Z,98531.69
2022-09-28T04:32:02.143Z,98537.03
2022-09-28T04:32:49.026Z,98540.19
2022-09-28T04:33:35.751Z,98546.97
2022-09-28T04:34:23.131Z,98540.13
2022-09-28T04:35:12.082Z,98541.75
2022-09-28T04:35:58.672Z,98540.28
2022-09-28T04:36:46.072Z,98546.47
2022-09-28T04:37:33.822Z,98548.94
2022-09-28T04:38:35.639Z,98555.31
2022-09-28T04:39:26.973Z,98544.16
2022-09-28T04:40:13.601Z,98550.12
2022-09-28T04:41:00.285Z,98547.22
2022-09-28T04:41:48.476Z,98545.37
2022-09-28T04:42:36.486Z,98550.97
2022-09-28T04:43:23.112Z,98548.47
2022-09-28T04:44:10.000Z,98547.25
2022-09-28T04:44:58.062Z,98552.22
2022-09-28T04:45:44.725Z,98541.47
2022-09-28T04:46:31.493Z,98545.37
2022-09-28T04:47:18.123Z,98548.44
2022-09-28T04:48:07.718Z,98538.94
2022-09-28T04:48:54.311Z,98541.78
2022-09-28T04:49:40.882Z,98543.84
2022-09-28T04:50:27.502Z,98545.13
2022-09-28T04:51:14.111Z,98539.75
2022-09-28T04:52:00.922Z,98535.59
2022-09-28T04:52:47.623Z,98537.25
2022-09-28T04:53:35.172Z,98538.53
2022-09-28T04:54:21.751Z,98537.31
2022-09-28T04:55:11.842Z,98539.09
2022-09-28T04:56:01.092Z,98536.84
2022-09-28T04:56:47.812Z,98541.16
2022-09-28T04:57:35.263Z,98539.09
2022-09-28T04:58:21.872Z,98537.06
2022-09-28T04:59:08.469Z,98544.03
2022-09-28T04:59:55.083Z,98541.59
2022-09-28T05:00:42.266Z,98543.25
2022-09-28T05:01:31.117Z,98539.75
2022-09-28T05:02:17.819Z,98539.38
2022-09-28T05:03:05.048Z,98535.00
2022-09-28T05:03:51.652Z,98535.66
2022-09-28T05:04:38.260Z,98538.81
2022-09-28T05:05:24.953Z,98530.81
2022-09-28T05:06:15.693Z,98535.41
2022-09-28T05:07:02.264Z,98536.81
2022-09-28T05:07:48.850Z,98545.31
2022-09-28T05:08:36.123Z,98541.41
2022-09-28T05:09:22.713Z,98545.09
2022-09-28T05:10:09.376Z,98541.81
2022-09-28T05:11:04.730Z,98535.84
2022-09-28T05:11:53.076Z,98539.53
2022-09-28T05:12:39.732Z,98536.66
2022-09-28T05:13:27.478Z,98537.69
2022-09-28T05:14:14.152Z,98536.44
2022-09-28T05:15:00.963Z,98536.25
2022-09-28T05:15:47.544Z,98529.66
2022-09-28T05:16:34.371Z,98538.13
2022-09-28T05:17:20.992Z,98529.66
2022-09-28T05:18:08.093Z,98529.47
2022-09-28T05:18:56.153Z,98524.91
2022-09-28T05:19:43.423Z,98533.44
2022-09-28T05:20:30.402Z,98530.94
2022-09-28T05:21:19.595Z,98526.81
2022-09-28T05:22:08.473Z,98529.31
2022-09-28T05:22:55.207Z,98524.56
2022-09-28T05:23:46.682Z,98522.13
2022-09-28T05:24:33.272Z,98526.47
2022-09-28T05:25:20.042Z,98528.56
2022-09-28T05:26:07.285Z,98523.63
2022-09-28T05:26:53.870Z,98527.12
2022-09-28T05:27:40.472Z,98527.31
2022-09-28T05:28:29.379Z,98526.50
2022-09-28T05:29:15.992Z,98529.63
2022-09-28T05:30:02.763Z,98519.50
2022-09-28T05:30:49.362Z,98515.56
2022-09-28T05:31:36.077Z,98516.13
2022-09-28T05:32:22.728Z,98519.91
2022-09-28T05:33:09.322Z,98519.25
2022-09-28T05:33:55.956Z,98517.84
2022-09-28T05:34:42.586Z,98515.37
2022-09-28T05:35:29.882Z,98507.31
2022-09-28T05:36:16.465Z,98521.59
2022-09-28T05:37:03.292Z,98519.72
2022-09-28T05:37:49.902Z,98510.41
2022-09-28T05:38:36.704Z,98518.47
2022-09-28T05:39:23.531Z,98505.88
2022-09-28T05:40:10.962Z,98517.25
2022-09-28T05:40:57.935Z,98514.37
2022-09-28T05:41:44.802Z,98507.13
2022-09-28T05:42:31.890Z,98509.22
2022-09-28T05:43:18.656Z,98507.22
2022-09-28T05:44:05.322Z,98506.59
2022-09-28T05:44:51.962Z,98506.78
2022-09-28T05:45:38.619Z,98502.66
2022-09-28T05:46:25.367Z,98507.41
2022-09-28T05:47:12.541Z,98503.91
2022-09-28T05:47:59.162Z,98499.78
2022-09-28T05:48:45.771Z,98498.72
2022-09-28T05:49:32.632Z,98501.84
2022-09-28T05:50:19.222Z,98503.09
2022-09-28T05:51:06.036Z,98496.88
2022-09-28T05:51:52.611Z,98500.63
2022-09-28T05:52:39.166Z,98503.31
2022-09-28T05:53:25.783Z,98497.75
2022-09-28T05:54:12.485Z,98498.38
2022-09-28T05:54:59.062Z,98498.78
2022-09-28T05:55:45.901Z,98498.59
2022-09-28T05:56:32.696Z,98506.66
2022-09-28T05:57:19.366Z,98496.53
2022-09-28T05:58:06.651Z,98505.22
2022-09-28T05:58:53.250Z,98495.91
2022-09-28T05:59:40.223Z,98492.41
2022-09-28T06:00:30.532Z,98498.41
2022-09-28T06:01:17.240Z,98496.16
2022-09-28T06:02:05.146Z,98491.19
2022-09-28T06:03:08.878Z,98496.16
2022-09-28T06:03:56.086Z,98490.13
2022-09-28T06:04:42.768Z,98489.31
2022-09-28T06:05:29.755Z,98489.94
2022-09-28T06:06:16.343Z,98487.69
2022-09-28T06:07:02.952Z,98480.81
2022-09-28T06:07:49.562Z,98488.50
2022-09-28T06:08:36.154Z,98489.75
2022-09-28T06:09:26.235Z,98487.47
2022-09-28T06:10:13.037Z,98493.47
2022-09-28T06:11:01.312Z,98494.91
2022-09-28T06:11:48.412Z,98493.47
2022-09-28T06:12:35.073Z,98483.53
2022-09-28T06:13:21.688Z,98492.03
2022-09-28T06:14:08.334Z,98481.03
2022-09-28T06:14:55.252Z,98485.38
2022-09-28T06:15:42.665Z,98479.16
2022-09-28T06:16:29.284Z,98484.94
2022-09-28T06:17:15.946Z,98474.78
2022-09-28T06:18:05.136Z,98483.28
2022-09-28T06:18:51.856Z,98476.00
2022-09-28T06:19:39.157Z,98470.22
2022-09-28T06:20:27.030Z,98474.34
2022-09-28T06:21:13.653Z,98475.78
2022-09-28T06:22:00.243Z,98478.28
2022-09-28T06:22:51.105Z,98476.00
2022-09-28T06:23:40.000Z,98476.00
2022-09-28T06:24:27.203Z,98472.03
2022-09-28T06:25:13.836Z,98479.47
2022-09-28T06:26:00.832Z,98481.97
2022-09-28T06:26:47.443Z,98479.66
2022-09-28T06:27:34.541Z,98475.91
2022-09-28T06:28:21.162Z,98481.50
2022-09-28T06:29:07.981Z,98484.78
2022-09-28T06:29:54.602Z,98478.50
2022-09-28T06:30:42.497Z,98481.00
2022-09-28T06:31:30.205Z,98487.16
2022-09-28T06:32:16.802Z,98481.56
2022-09-28T06:33:03.419Z,98486.31
2022-09-28T06:33:50.802Z,98481.28
2022-09-28T06:34:37.412Z,98483.56
2022-09-28T06:35:26.135Z,98483.72
2022-09-28T06:36:13.429Z,98484.09
2022-09-28T06:37:00.015Z,98486.09
2022-09-28T06:37:46.683Z,98478.94
2022-09-28T06:38:33.322Z,98480.97
2022-09-28T06:39:19.932Z,98487.38
2022-09-28T06:40:07.063Z,98480.28
2022-09-28T06:40:53.762Z,98482.88
2022-09-28T06:41:40.432Z,98488.81
2022-09-28T06:42:27.063Z,98481.72
2022-09-28T06:43:15.544Z,98478.97
2022-09-28T06:44:03.774Z,98476.19
2022-09-28T06:44:50.511Z,98482.19
2022-09-28T06:45:38.637Z,98476.53
2022-09-28T06:46:25.648Z,98478.78
2022-09-28T06:47:16.529Z,98473.38
2022-09-28T06:48:03.714Z,98477.28
2022-09-28T06:48:50.755Z,98478.72
2022-09-28T06:49:37.364Z,98478.88
2022-09-28T06:50:25.711Z,98476.69
2022-09-28T06:51:12.382Z,98475.84
2022-09-28T06:51:58.962Z,98479.75
2022-09-28T06:52:45.571Z,98471.91
2022-09-28T06:53:32.621Z,98471.00
2022-09-28T06:54:19.340Z,98471.13
2022-09-28T06:55:06.493Z,98468.81
2022-09-28T06:55:53.092Z,98469.56
2022-09-28T06:56:39.723Z,98467.22
2022-09-28T06:57:26.354Z,98472.31
2022-09-28T06:58:15.612Z,98465.16
2022-09-28T06:59:02.212Z,98470.38
2022-09-28T06:59:50.252Z,98466.00
2022-09-28T07:00:38.149Z,98469.47
2022-09-28T07:01:25.094Z,98463.56
2022-09-28T07:02:14.537Z,98454.66
2022-09-28T07:03:06.601Z,98458.81
2022-09-28T07:03:55.907Z,98458.56
2022-09-28T07:04:43.182Z,98456.47
2022-09-28T07:05:30.112Z,98451.66
2022-09-28T07:06:17.061Z,98446.00
2022-09-28T07:07:03.715Z,98452.03
2022-09-28T07:07:50.330Z,98455.53
2022-09-28T07:08:36.933Z,98453.22
2022-09-28T07:09:32.196Z,98452.50
2022-09-28T07:10:30.158Z,98454.31
2022-09-28T07:11:17.644Z,98449.84
2022-09-28T07:12:05.064Z,98456.91
2022-09-28T07:12:52.252Z,98446.87
2022-09-28T07:13:50.719Z,98454.09
2022-09-28T07:14:47.405Z,98444.81
2022-09-28T07:15:35.003Z,98451.66
2022-09-28T07:16:26.699Z,98449.91
2022-09-28T07:17:15.143Z,98450.22
2022-09-28T07:18:04.133Z,98455.06
2022-09-28T07:18:51.203Z,98455.91
2022-09-28T07:19:37.893Z,98458.94
2022-09-28T07:20:25.593Z,98462.84
2022-09-28T07:21:22.922Z,98463.03
2022-09-28T07:22:18.920Z,98472.78
2022-09-28T07:23:18.286Z,98473.16
2022-09-28T07:24:07.023Z,98461.72
2022-09-28T07:24:53.722Z,98459.84
2022-09-28T07:25:45.546Z,98465.59
2022-09-28T07:26:33.343Z,98458.88
2022-09-28T07:27:20.413Z,98454.31
2022-09-28T07:28:07.214Z,98453.47
2022-09-28T07:28:56.175Z,98459.03
2022-09-28T07:29:43.055Z,98457.12
2022-09-28T07:30:33.411Z,98447.59
2022-09-28T07:31:20.344Z,98445.47
2022-09-28T07:32:09.643Z,98444.53
2022-09-28T07:32:56.592Z,98446.16
2022-09-28T07:33:43.832Z,98440.97
2022-09-28T07:34:30.662Z,98448.53
2022-09-28T07:35:17.389Z,98452.19
2022-09-28T07:36:06.815Z,98445.81
2022-09-28T07:36:58.115Z,98453.47
2022-09-28T07:37:45.158Z,98449.94
2022-09-28T07:38:32.084Z,98448.84
2022-09-28T07:39:18.782Z,98442.25
2022-09-28T07:40:25.862Z,98447.66
2022-09-28T07:41:14.056Z,98447.44
2022-09-28T07:42:03.055Z,98451.44
2022-09-28T07:42:50.842Z,98456.34
2022-09-28T07:43:39.833Z,98453.91
2022-09-28T07:44:26.472Z,98451.66
2022-09-28T07:45:13.218Z,98449.28
2022-09-28T07:46:00.081Z,98451.28
2022-09-28T07:46:46.784Z,98449.75
2022-09-28T07:47:35.289Z,98454.69
2022-09-28T07:48:22.734Z,98456.13
2022-09-28T07:49:12.225Z,98448.78
2022-09-28T07:49:59.982Z,98452.56
2022-09-28T07:50:52.943Z,98454.44
2022-09-28T07:51:39.732Z,98449.69
2022-09-28T07:52:28.626Z,98446.53
2022-09-28T07:53:15.423Z,98449.81
2022-09-28T07:54:02.123Z,98444.34
2022-09-28T07:54:52.773Z,98449.75
2022-09-28T07:55:39.510Z,98445.03
2022-09-28T07:56:26.302Z,98436.06
2022-09-28T07:57:12.952Z,98434.75
2022-09-28T07:58:01.468Z,98443.22
2022-09-28T07:58:49.114Z,98438.94
2022-09-28T07:59:36.242Z,98432.47
2022-09-28T08:00:23.114Z,98436.00
2022-09-28T08:01:11.962Z,98438.94
2022-09-28T08:01:59.675Z,98435.78
2022-09-28T08:02:46.659Z,98437.66
2022-09-28T08:03:33.663Z,98436.47
2022-09-28T08:04:20.683Z,98433.00
2022-09-28T08:05:10.223Z,98438.94
2022-09-28T08:06:01.186Z,98437.84
2022-09-28T08:06:48.492Z,98448.34
2022-09-28T08:07:38.221Z,98443.59
2022-09-28T08:08:24.893Z,98446.03
2022-09-28T08:09:11.604Z,98441.19
2022-09-28T08:09:58.524Z,98433.63
2022-09-28T08:10:47.317Z,98436.84
2022-09-28T08:11:34.502Z,98434.53
2022-09-28T08:12:21.786Z,98428.88
2022-09-28T08:13:08.840Z,98429.19
2022-09-28T08:13:57.805Z,98430.69
2022-09-28T08:15:09.001Z,98426.28
2022-09-28T08:15:55.854Z,98430.84
2022-09-28T08:16:47.520Z,98419.97
2022-09-28T08:17:36.592Z,98429.53
2022-09-28T08:18:23.982Z,98432.81
2022-09-28T08:19:10.606Z,98427.44
2022-09-28T08:20:15.724Z,98431.44
2022-09-28T08:21:22.613Z,98428.38
2022-09-28T08:22:09.242Z,98425.25
2022-09-28T08:22:56.921Z,98427.44
2022-09-28T08:23:43.727Z,98415.09
2022-09-28T08:24:31.168Z,98424.56
2022-09-28T08:25:17.774Z,98419.97
2022-09-28T08:26:04.479Z,98412.78
2022-09-28T08:26:51.462Z,98408.66
2022-09-28T08:27:38.267Z,98406.50
2022-09-28T08:28:25.594Z,98405.84
2022-09-28T08:29:12.218Z,98405.91
2022-09-28T08:29:58.782Z,98401.44
2022-09-28T08:30:46.441Z,98404.19
2022-09-28T08:31:33.384Z,98400.16
2022-09-28T08:32:21.026Z,98396.34
2022-09-28T08:33:07.863Z,98404.25
2022-09-28T08:33:54.532Z,98407.22
2022-09-28T08:34:41.663Z,98403.19
2022-09-28T08:35:28.371Z,98406.81
2022-09-28T08:36:15.053Z,98411.34
2022-09-28T08:37:01.643Z,98409.53
2022-09-28T08:37:55.660Z,98412.56
2022-09-28T08:38:42.433Z,98403.41
2022-09-28T08:39:29.062Z,98404.28
2022-09-28T08:40:19.574Z,98407.50
2022-09-28T08:41:06.085Z,98410.84
2022-09-28T08:41:59.959Z,98408.72
2022-09-28T08:42:46.443Z,98412.19
2022-09-28T08:43:51.562Z,98410.81
2022-09-28T08:45:35.062Z,98402.84
2022-09-28T08:46:25.097Z,98416.69
2022-09-28T08:47:35.391Z,98418.63
2022-09-28T08:48:42.630Z,98413.63
2022-09-28T08:49:42.025Z,98411.28
2022-09-28T08:50:29.692Z,98409.09
2022-09-28T08:51:18.073Z,98402.47
2022-09-28T08:52:23.661Z,98407.09
2022-09-28T08:53:18.382Z,98405.41
2022-09-28T08:54:11.029Z,98405.25
2022-09-28T08:54:59.301Z,98409.66
2022-09-28T08:55:45.811Z,98408.31
2022-09-28T08:56:32.237Z,98406.16
2022-09-28T08:57:28.084Z,98409.38
2022-09-28T08:58:15.432Z,98404.25
2022-09-28T08:59:03.318Z,98395.31
2022-09-28T08:59:51.685Z,98400.28
2022-09-28T09:00:46.294Z,98388.62
2022-09-28T09:01:35.157Z,98394.47
2022-09-28T09:02:29.508Z,98394.22
2022-09-28T09:03:23.954Z,98400.78
2022-09-28T09:04:10.453Z,98399.34
2022-09-28T09:04:57.067Z,98406.38
2022-09-28T09:05:52.753Z,98411.91
2022-09-28T09:06:41.862Z,98408.09
2022-09-28T09:07:34.588Z,98413.72
2022-09-28T09:08:24.754Z,98401.41
2022-09-28T09:09:17.224Z,98407.47
2022-09-28T09:10:03.673Z,98410.41
2022-09-28T09:10:51.352Z,98402.03
2022-09-28T09:11:40.892Z,98397.47
2022-09-28T09:12:47.606Z,98395.97
2022-09-28T09:13:56.015Z,98390.81
2022-09-28T09:14:51.442Z,98396.81
2022-09-28T09:15:43.483Z,98399.06
2022-09-28T09:16:35.448Z,98395.88
2022-09-28T09:17:42.889Z,98394.81
2022-09-28T09:18:35.567Z,98398.59
2022-09-28T09:19:40.269Z,98402.19
2022-09-28T09:20:32.773Z,98406.63
2022-09-28T09:21:31.355Z,98396.25
2022-09-28T09:22:18.917Z,98399.03
2022-09-28T09:23:12.762Z,98395.19
2022-09-28T09:24:04.164Z,98399.50
2022-09-28T09:25:08.805Z,98397.34
2022-09-28T09:26:45.961Z,98385.63
2022-09-28T09:27:40.221Z,98385.63
2022-09-28T09:28:48.475Z,98394.81
2022-09-28T09:29:51.842Z,98392.44
2022-09-28T09:30:47.710Z,98391.31
2022-09-28T09:31:57.233Z,98399.25
2022-09-28T09:33:07.102Z,98391.63
2022-09-28T09:34:34.472Z,98392.56
2022-09-28T09:35:59.007Z,98392.28
2022-09-28T09:36:57.455Z,98389.81
2022-09-28T09:37:58.257Z,98394.72
2022-09-28T09:38:48.484Z,98393.34
2022-09-28T09:39:58.462Z,98386.06
2022-09-28T09:41:17.769Z,98377.16
2022-09-28T09:42:28.146Z,98384.03
2022-09-28T09:43:20.652Z,98389.19
2022-09-28T09:44:32.882Z,98388.91
2022-09-28T09:45:35.854Z,98391.13
2022-09-28T09:46:31.431Z,98389.75
2022-09-28T09:47:38.383Z,98391.13
2022-09-28T09:48:48.192Z,98385.06
2022-09-28T09:49:44.012Z,98374.19
2022-09-28T09:50:35.476Z,98384.84
2022-09-28T09:51:25.075Z,98382.72
2022-09-28T09:52:23.980Z,98388.75
2022-09-28T09:53:27.243Z,98378.84
2022-09-28T09:54:37.405Z,98384.59
2022-09-28T09:55:44.755Z,98374.97
2022-09-28T09:56:35.445Z,98382.44